createdAt,value
2019-01-06T00:02:10.687Z,7.73
2019-01-06T00:07:24.605Z,6.70
2019-01-06T00:12:25.142Z,7.57
2019-01-06T00:17:34.715Z,7.63
2019-01-06T00:22:38.415Z,7.07
2019-01-06T00:27:45.191Z,7.27
2019-01-06T00:32:54.613Z,7.20
2019-01-06T00:37:52.202Z,7.77
2019-01-06T00:42:52.665Z,7.40
2019-01-06T00:47:56.239Z,8.07
2019-01-06T00:52:56.753Z,7.00
2019-01-06T00:58:10.935Z,7.23
2019-01-06T01:03:20.599Z,8.10
2019-01-06T01:08:35.949Z,7.70
2019-01-06T01:13:39.350Z,8.47
2019-01-06T01:18:36.945Z,9.50
2019-01-06T01:23:37.447Z,8.93
2019-01-06T01:28:49.857Z,8.70
2019-01-06T01:34:03.698Z,8.67
2019-01-06T01:39:04.208Z,8.80
2019-01-06T01:44:04.754Z,9.03
2019-01-06T01:49:14.315Z,8.87
2019-01-06T01:54:11.918Z,8.00
2019-01-06T01:59:15.543Z,8.20
2019-01-06T02:04:29.505Z,8.47
2019-01-06T02:09:33.228Z,7.40
2019-01-06T02:14:31.110Z,7.53
2019-01-06T02:19:45.092Z,7.57
2019-01-06T02:24:59.484Z,7.87
2019-01-06T02:30:13.396Z,8.13
2019-01-06T02:35:17.020Z,7.63
2019-01-06T02:40:14.700Z,7.87
2019-01-06T02:45:24.374Z,7.83
2019-01-06T02:50:38.549Z,8.57
2019-01-06T02:55:39.024Z,8.37
2019-01-06T03:00:53.041Z,8.10
2019-01-06T03:06:07.254Z,8.03
2019-01-06T03:11:07.777Z,7.93
2019-01-06T03:16:11.521Z,7.60
2019-01-06T03:21:09.121Z,7.17
2019-01-06T03:26:09.454Z,7.33
2019-01-06T03:31:23.414Z,7.87
2019-01-06T03:36:37.892Z,7.17
2019-01-06T03:41:52.283Z,6.90
2019-01-06T03:47:06.123Z,6.77
2019-01-06T03:52:03.970Z,6.93
2019-01-06T03:57:04.695Z,6.93
2019-01-06T04:02:05.239Z,6.27
2019-01-06T04:07:03.091Z,6.13
2019-01-06T04:12:09.377Z,6.13
2019-01-06T04:17:19.064Z,6.27
2019-01-06T04:22:25.403Z,7.03
2019-01-06T04:27:32.018Z,7.30
2019-01-06T04:32:38.353Z,8.03
2019-01-06T04:37:52.488Z,8.10
2019-01-06T04:42:52.723Z,8.67
2019-01-06T04:47:53.235Z,8.50
2019-01-06T04:53:02.686Z,8.90
2019-01-06T04:58:03.147Z,8.47
2019-01-06T05:03:03.859Z,9.33
2019-01-06T05:08:19.275Z,9.07
2019-01-06T05:13:16.853Z,9.50
2019-01-06T05:18:23.411Z,9.13
2019-01-06T05:23:23.656Z,8.13
2019-01-06T05:28:23.907Z,9.10
2019-01-06T05:33:24.426Z,9.17
2019-01-06T05:38:38.566Z,8.63
2019-01-06T05:43:36.199Z,8.53
2019-01-06T05:48:33.811Z,7.90
2019-01-06T05:53:48.023Z,7.70
2019-01-06T05:58:51.579Z,8.60
2019-01-06T06:03:49.432Z,8.20
2019-01-06T06:09:01.806Z,8.50
2019-01-06T06:14:15.646Z,7.10
2019-01-06T06:19:13.235Z,7.03
2019-01-06T06:24:14.228Z,7.43
2019-01-06T06:29:11.839Z,7.07
2019-01-06T06:34:18.531Z,7.37
2019-01-06T06:39:32.685Z,7.03
2019-01-06T06:44:45.671Z,7.50
2019-01-06T06:49:46.150Z,7.70
2019-01-06T06:54:58.840Z,7.47
2019-01-06T07:00:15.023Z,7.53
2019-01-06T07:05:21.268Z,6.73
2019-01-06T07:10:25.132Z,7.60
2019-01-06T07:15:40.523Z,8.37
2019-01-06T07:20:52.841Z,6.73
2019-01-06T07:25:53.337Z,6.60
2019-01-06T07:31:03.241Z,5.97
2019-01-06T07:36:09.807Z,6.70
2019-01-06T07:41:13.417Z,6.27
2019-01-06T07:46:27.450Z,7.10
2019-01-06T07:51:30.791Z,6.30
2019-01-06T07:56:40.365Z,6.00
2019-01-06T08:01:44.007Z,4.97
2019-01-06T08:06:59.377Z,4.37
2019-01-06T08:11:56.993Z,4.80
2019-01-06T08:16:57.232Z,4.33
2019-01-06T08:22:00.888Z,3.87
2019-01-06T08:27:13.279Z,2.17
2019-01-06T08:32:27.149Z,2.47
2019-01-06T08:37:30.399Z,2.80
2019-01-06T08:42:28.079Z,1.70
2019-01-06T08:47:40.853Z,1.50
2019-01-06T08:52:41.309Z,1.80
2019-01-06T08:57:38.957Z,2.60
2019-01-06T09:02:54.364Z,3.20
2019-01-06T09:07:51.989Z,8.73
2019-01-06T09:12:58.236Z,3.57
2019-01-06T09:18:07.888Z,2.37
2019-01-06T09:23:17.625Z,2.70
2019-01-06T09:28:15.231Z,6.63
2019-01-06T09:33:29.393Z,7.90
2019-01-06T09:38:27.021Z,3.30
2019-01-06T09:43:27.294Z,2.87
2019-01-06T09:48:30.814Z,4.27
2019-01-06T09:53:31.056Z,3.63
2019-01-06T09:58:37.390Z,3.43
2019-01-06T10:03:40.650Z,3.10
2019-01-06T10:08:50.339Z,2.47
2019-01-06T10:14:05.778Z,2.00
2019-01-06T10:19:15.185Z,2.40
2019-01-06T10:24:27.868Z,2.30
2019-01-06T10:29:25.510Z,4.30
2019-01-06T10:34:29.093Z,4.17
2019-01-06T10:39:35.813Z,4.10
2019-01-06T10:44:45.200Z,3.30
2019-01-06T10:49:59.330Z,2.80
2019-01-06T10:54:59.589Z,3.30
2019-01-06T11:00:03.273Z,2.60
2019-01-06T11:05:17.243Z,3.00
2019-01-06T11:10:31.369Z,3.50
2019-01-06T11:15:38.072Z,3.77
2019-01-06T11:20:35.785Z,4.00
2019-01-06T11:25:33.495Z,3.67
2019-01-06T11:30:47.675Z,7.20
2019-01-06T11:36:01.831Z,5.07
2019-01-06T11:41:14.199Z,5.67
2019-01-06T11:46:17.724Z,7.47
2019-01-06T11:51:32.092Z,4.33
2019-01-06T11:56:46.538Z,4.43
2019-01-06T12:01:44.369Z,4.37
2019-01-06T12:06:41.995Z,6.00
2019-01-06T12:11:54.935Z,4.40
2019-01-06T12:16:55.369Z,4.20
2019-01-06T12:22:09.476Z,4.03
2019-01-06T12:27:19.092Z,3.77
2019-01-06T12:32:16.822Z,3.50
2019-01-06T12:37:17.064Z,3.67
2019-01-06T12:42:31.169Z,4.30
2019-01-06T12:47:31.427Z,4.00
2019-01-06T12:52:45.427Z,3.47
2019-01-06T12:57:59.807Z,3.30
2019-01-06T13:03:22.597Z,3.57
2019-01-06T13:08:35.262Z,3.37
2019-01-06T13:13:50.643Z,2.90
2019-01-06T13:18:51.230Z,3.70
2019-01-06T13:24:05.623Z,3.50
2019-01-06T13:29:15.062Z,4.47
2019-01-06T13:34:12.881Z,4.53
2019-01-06T13:39:22.449Z,7.20
2019-01-06T13:44:26.038Z,5.67
2019-01-06T13:49:38.480Z,5.73
2019-01-06T13:54:52.360Z,5.40
2019-01-06T14:00:06.441Z,8.43
2019-01-06T14:05:09.926Z,10.90
2019-01-06T14:10:10.752Z,6.37
2019-01-06T14:15:08.330Z,7.17
2019-01-06T14:20:16.824Z,6.07
2019-01-06T14:25:20.389Z,11.07
2019-01-06T14:30:21.062Z,7.00
2019-01-06T14:35:18.908Z,5.77
2019-01-06T14:40:33.285Z,6.00
2019-01-06T14:45:42.915Z,6.43
2019-01-06T14:50:40.535Z,6.37
2019-01-06T14:55:38.155Z,7.50
2019-01-06T15:00:35.813Z,13.53
2019-01-06T15:05:51.402Z,8.27
2019-01-06T15:10:49.023Z,7.97
2019-01-06T15:15:52.279Z,10.93
2019-01-06T15:20:52.543Z,11.13
2019-01-06T15:25:53.031Z,10.80
2019-01-06T15:31:08.755Z,11.20
2019-01-06T15:36:22.656Z,12.23
2019-01-06T15:41:32.269Z,12.47
2019-01-06T15:46:35.566Z,10.57
2019-01-06T15:51:36.117Z,8.40
2019-01-06T15:56:33.986Z,8.67
2019-01-06T16:01:46.931Z,9.90
2019-01-06T16:06:47.555Z,9.47
2019-01-06T16:11:48.106Z,10.00
2019-01-06T16:16:48.325Z,9.67
2019-01-06T16:21:51.798Z,10.60
2019-01-06T16:26:52.377Z,13.13
2019-01-06T16:31:49.973Z,12.07
2019-01-06T16:36:56.223Z,13.60
2019-01-06T16:41:56.551Z,12.40
2019-01-06T16:47:10.536Z,13.57
2019-01-06T16:52:11.352Z,14.90
2019-01-06T16:57:11.584Z,15.53
2019-01-06T17:02:25.738Z,17.73
2019-01-06T17:07:23.608Z,19.40
2019-01-06T17:12:37.731Z,17.53
2019-01-06T17:17:44.119Z,16.90
2019-01-06T17:22:41.733Z,16.93
2019-01-06T17:27:39.369Z,19.53
2019-01-06T17:32:40.152Z,20.43
2019-01-06T17:37:52.576Z,20.97
2019-01-06T17:42:55.995Z,34.07
2019-01-06T17:48:10.184Z,31.90
2019-01-06T17:53:07.775Z,22.20
2019-01-06T17:58:14.088Z,21.37
2019-01-06T18:03:11.891Z,20.53
2019-01-06T18:08:26.119Z,19.87
2019-01-06T18:13:40.328Z,18.33
2019-01-06T18:18:43.596Z,18.13
2019-01-06T18:23:50.661Z,14.30
2019-01-06T18:28:51.282Z,13.43
2019-01-06T18:33:48.987Z,10.80
2019-01-06T18:38:52.454Z,9.17
2019-01-06T18:43:58.736Z,9.47
2019-01-06T18:49:02.330Z,8.63
2019-01-06T18:54:08.893Z,8.73
2019-01-06T18:59:23.051Z,9.13
2019-01-06T19:04:32.970Z,9.10
2019-01-06T19:09:49.153Z,8.40
2019-01-06T19:14:49.527Z,8.97
2019-01-06T19:19:53.348Z,8.70
2019-01-06T19:24:53.676Z,9.03
2019-01-06T19:29:51.295Z,9.30
2019-01-06T19:34:53.128Z,9.17
2019-01-06T19:39:56.682Z,9.70
2019-01-06T19:45:10.875Z,9.90
2019-01-06T19:50:26.251Z,9.77
2019-01-06T19:55:26.958Z,9.63
2019-01-06T20:00:33.347Z,9.63
2019-01-06T20:05:42.947Z,10.50
2019-01-06T20:10:40.537Z,10.80
2019-01-06T20:15:49.883Z,10.20
2019-01-06T20:20:47.551Z,11.37
2019-01-06T20:26:01.434Z,10.97
2019-01-06T20:31:02.115Z,10.90
2019-01-06T20:36:16.018Z,11.17
2019-01-06T20:41:25.812Z,11.23
2019-01-06T20:46:23.564Z,11.10
2019-01-06T20:51:36.313Z,11.57
2019-01-06T20:56:48.999Z,11.03
2019-01-06T21:02:03.250Z,11.53
2019-01-06T21:07:19.095Z,11.87
2019-01-06T21:12:16.739Z,10.53
2019-01-06T21:17:26.225Z,10.17
2019-01-06T21:22:29.765Z,9.47
2019-01-06T21:27:36.115Z,9.93
2019-01-06T21:32:36.667Z,9.70
2019-01-06T21:37:40.151Z,9.53
2019-01-06T21:42:46.544Z,10.30
2019-01-06T21:47:59.165Z,9.87
2019-01-06T21:52:57.031Z,10.57
2019-01-06T21:58:03.261Z,10.80
2019-01-06T22:03:12.609Z,10.07
2019-01-06T22:08:16.007Z,10.17
2019-01-06T22:13:25.561Z,10.43
2019-01-06T22:18:41.024Z,10.40
2019-01-06T22:23:38.721Z,10.57
2019-01-06T22:28:36.665Z,10.97
2019-01-06T22:33:43.139Z,10.80
2019-01-06T22:38:46.513Z,10.70
2019-01-06T22:43:53.029Z,10.20
2019-01-06T22:48:50.615Z,11.40
2019-01-06T22:54:00.163Z,11.40
2019-01-06T22:58:57.782Z,11.03
2019-01-06T23:03:55.403Z,11.07
2019-01-06T23:09:09.459Z,10.57
2019-01-06T23:14:18.975Z,11.13
2019-01-06T23:19:31.623Z,11.07
2019-01-06T23:24:45.831Z,10.80
2019-01-06T23:29:46.163Z,11.40
2019-01-06T23:34:43.759Z,11.00
2019-01-06T23:39:44.010Z,11.43
2019-01-06T23:44:50.669Z,12.03
2019-01-06T23:49:54.462Z,10.67
2019-01-06T23:55:08.283Z,10.93
